Expo Clipper — WDD8769 — position and weather

sailwx.info

Track history (hours):
 
Tides and Currents Weather Stations Pressure Air Temp Water Temp Dewpoint Dewpoint Depression Visibility Wind Speed Wind Dir Waves Ship Positions

Expo Clipper

Owner: Expoships LLLP, Bonita Springs, FL. More information available from US FCC via Universal Licensing System and Coast Guard Vessel Documentation Center.

Last reported at 2017-Dec-18 22:32 UTC. Time now 2018-Feb-20 02:09 UTC.
Position N 33°44' W 118°16'.
Warning: this ship's position is months out of date.

Length 31 m.

Type: Passenger vessel. MMSI: 367302530.

Date/timePositionNaut miles runAvg speedWind from/ knotsBaromVisibWave heightAir tempDewpointWater temp
2017-Dec-18 22:32N 33°44' W 118°16'0 0.0
2017-Dec-18 22:30N 33°44' W 118°16'20 0.9
2017-Dec-18 01:15N 33°37' W 117°54'0 0.0
2017-Dec-18 00:54N 33°37' W 117°54'0 0.0
2017-Dec-17 09:38N 33°37' W 117°54'0 0.0
2017-Dec-16 10:31N 33°37' W 117°54'0 0.0
2017-Dec-16 10:30N 33°37' W 117°54'0 0.0
2017-Dec-15 20:52N 33°37' W 117°54'0 0.0
2017-Dec-15 16:07N 33°37' W 117°54'0 0.0
2017-Dec-15 15:42N 33°36' W 117°54'0 0.0
2017-Dec-15 15:24N 33°37' W 117°54'0 0.0
2017-Dec-15 15:00N 33°36' W 117°54'0 0.0
2017-Dec-15 14:30N 33°37' W 117°54'0 0.0
2017-Dec-15 13:53N 33°37' W 117°54'0 0.0
2017-Dec-15 13:28N 33°36' W 117°54'0 0.0
2017-Dec-15 12:46N 33°36' W 117°54'0 0.0
2017-Dec-15 12:30N 33°37' W 117°54'0 0.0
2017-Dec-15 11:56N 33°37' W 117°54'0 0.0
2017-Dec-15 11:29N 33°36' W 117°54'0 0.0
2017-Dec-15 09:53N 33°37' W 117°54'0 0.0
2017-Dec-15 09:27N 33°36' W 117°54'0 0.0
2017-Dec-15 09:00N 33°37' W 117°54'0 0.0
2017-Dec-15 05:12N 33°37' W 117°54'0 0.0
2017-Dec-15 05:00N 33°37' W 117°54'0 0.0
2017-Dec-15 04:31N 33°37' W 117°54'0 0.0
2017-Dec-15 04:00N 33°37' W 117°54'0 0.0
2017-Dec-13 22:18N 33°37' W 117°54'0 0.0
2017-Dec-13 21:57N 33°37' W 117°54'0 0.0
2017-Dec-13 19:20N 33°37' W 117°54'0 0.0
2017-Dec-13 19:00N 33°37' W 117°54'2 1.7
2017-Dec-13 17:53N 33°35' W 117°53'3 7.6
2017-Dec-13 17:30N 33°36' W 117°56'4 7.7
2017-Dec-13 17:00N 33°38' W 118°00'4 7.8
2017-Dec-13 16:30N 33°39' W 118°05'  
Track history (hours):
 
Tides and Currents Weather Stations Pressure Air Temp Water Temp Dewpoint Dewpoint Depression Visibility Wind Speed Wind Dir Waves Ship Positions

Expo Clipper

Owner: Expoships LLLP, Bonita Springs, FL. More information available from US FCC via Universal Licensing System and Coast Guard Vessel Documentation Center.

Last reported at 2017-Dec-18 22:32 UTC. Time now 2018-Feb-20 02:09 UTC.
Position N 33°44' W 118°16'.
Warning: this ship's position is months out of date.

Length 31 m.

Type: Passenger vessel. MMSI: 367302530.

Date/timePositionNaut miles runAvg speedWind from/ knotsBaromVisibWave heightAir tempDewpointWater temp
2017-Dec-18 22:32N 33°44' W 118°16'0 0.0
2017-Dec-18 22:30N 33°44' W 118°16'20 0.9
2017-Dec-18 01:15N 33°37' W 117°54'0 0.0
2017-Dec-18 00:54N 33°37' W 117°54'0 0.0
2017-Dec-17 09:38N 33°37' W 117°54'0 0.0
2017-Dec-16 10:31N 33°37' W 117°54'0 0.0
2017-Dec-16 10:30N 33°37' W 117°54'0 0.0
2017-Dec-15 20:52N 33°37' W 117°54'0 0.0
2017-Dec-15 16:07N 33°37' W 117°54'0 0.0
2017-Dec-15 15:42N 33°36' W 117°54'0 0.0
2017-Dec-15 15:24N 33°37' W 117°54'0 0.0
2017-Dec-15 15:00N 33°36' W 117°54'0 0.0
2017-Dec-15 14:30N 33°37' W 117°54'0 0.0
2017-Dec-15 13:53N 33°37' W 117°54'0 0.0
2017-Dec-15 13:28N 33°36' W 117°54'0 0.0
2017-Dec-15 12:46N 33°36' W 117°54'0 0.0
2017-Dec-15 12:30N 33°37' W 117°54'0 0.0
2017-Dec-15 11:56N 33°37' W 117°54'0 0.0
2017-Dec-15 11:29N 33°36' W 117°54'0 0.0
2017-Dec-15 09:53N 33°37' W 117°54'0 0.0
2017-Dec-15 09:27N 33°36' W 117°54'0 0.0
2017-Dec-15 09:00N 33°37' W 117°54'0 0.0
2017-Dec-15 05:12N 33°37' W 117°54'0 0.0
2017-Dec-15 05:00N 33°37' W 117°54'0 0.0
2017-Dec-15 04:31N 33°37' W 117°54'0 0.0
2017-Dec-15 04:00N 33°37' W 117°54'0 0.0
2017-Dec-13 22:18N 33°37' W 117°54'0 0.0
2017-Dec-13 21:57N 33°37' W 117°54'0 0.0
2017-Dec-13 19:20N 33°37' W 117°54'0 0.0
2017-Dec-13 19:00N 33°37' W 117°54'2 1.7
2017-Dec-13 17:53N 33°35' W 117°53'3 7.6
2017-Dec-13 17:30N 33°36' W 117°56'4 7.7
2017-Dec-13 17:00N 33°38' W 118°00'4 7.8
2017-Dec-13 16:30N 33°39' W 118°05'  

Dump ship's entire track history